sensor_id;sensor_type;location;lat;lon;timestamp;pressure;altitude;pressure_sealevel;temperature;humidity
43683;BME280;29285;52.128;21.060;2023-04-21T00:04:41;100750.62;;;12.93;56.63
43683;BME280;29285;52.128;21.060;2023-04-21T00:09:42;100748.80;;;12.89;56.99
43683;BME280;29285;52.128;21.060;2023-04-21T00:14:43;100747.33;;;12.82;57.15
43683;BME280;29285;52.128;21.060;2023-04-21T00:19:44;100744.77;;;12.79;57.57
43683;BME280;29285;52.128;21.060;2023-04-21T00:24:45;100739.34;;;12.72;57.70
43683;BME280;29285;52.128;21.060;2023-04-21T00:29:46;100739.47;;;12.65;57.89
43683;BME280;29285;52.128;21.060;2023-04-21T00:34:47;100743.23;;;12.59;58.09
43683;BME280;29285;52.128;21.060;2023-04-21T00:39:48;100741.58;;;12.54;58.31
43683;BME280;29285;52.128;21.060;2023-04-21T00:44:50;100739.92;;;12.49;58.61
43683;BME280;29285;52.128;21.060;2023-04-21T00:49:52;100742.98;;;12.44;58.85
43683;BME280;29285;52.128;21.060;2023-04-21T00:54:53;100739.38;;;12.40;59.01
43683;BME280;29285;52.128;21.060;2023-04-21T00:59:54;100739.82;;;12.35;59.31
43683;BME280;29285;52.128;21.060;2023-04-21T01:04:56;100733.98;;;12.31;59.64
43683;BME280;29285;52.128;21.060;2023-04-21T01:09:57;100731.63;;;12.25;59.78
43683;BME280;29285;52.128;21.060;2023-04-21T01:14:59;100726.66;;;12.21;60.01
43683;BME280;29285;52.128;21.060;2023-04-21T01:20:00;100726.97;;;12.13;60.21
43683;BME280;29285;52.128;21.060;2023-04-21T01:25:07;100723.40;;;12.08;60.62
43683;BME280;29285;52.128;21.060;2023-04-21T01:30:09;100724.67;;;12.02;60.88
43683;BME280;29285;52.128;21.060;2023-04-21T01:35:10;100726.30;;;11.98;61.12
43683;BME280;29285;52.128;21.060;2023-04-21T01:40:11;100735.20;;;11.95;61.37
43683;BME280;29285;52.128;21.060;2023-04-21T01:45:12;100732.84;;;11.91;61.56
43683;BME280;29285;52.128;21.060;2023-04-21T01:50:14;100731.70;;;11.86;61.80
43683;BME280;29285;52.128;21.060;2023-04-21T01:55:15;100733.16;;;11.81;61.99
43683;BME280;29285;52.128;21.060;2023-04-21T02:00:16;100731.00;;;11.73;62.25
43683;BME280;29285;52.128;21.060;2023-04-21T02:05:17;100733.00;;;11.67;62.50
43683;BME280;29285;52.128;21.060;2023-04-21T02:10:19;100732.38;;;11.63;62.63
43683;BME280;29285;52.128;21.060;2023-04-21T02:15:19;100727.95;;;11.56;62.85
43683;BME280;29285;52.128;21.060;2023-04-21T02:20:21;100728.89;;;11.51;63.19
43683;BME280;29285;52.128;21.060;2023-04-21T02:25:22;100730.50;;;11.47;63.42
43683;BME280;29285;52.128;21.060;2023-04-21T02:30:23;100729.00;;;11.42;63.72
43683;BME280;29285;52.128;21.060;2023-04-21T02:35:24;100728.38;;;11.37;63.89
43683;BME280;29285;52.128;21.060;2023-04-21T02:40:25;100725.83;;;11.32;64.11
43683;BME280;29285;52.128;21.060;2023-04-21T02:45:27;100725.71;;;11.28;64.29
43683;BME280;29285;52.128;21.060;2023-04-21T02:50:28;100725.10;;;11.21;64.53
43683;BME280;29285;52.128;21.060;2023-04-21T02:55:29;100726.73;;;11.15;64.58
43683;BME280;29285;52.128;21.060;2023-04-21T03:00:30;100725.23;;;11.11;64.99
43683;BME280;29285;52.128;21.060;2023-04-21T03:05:31;100722.83;;;11.08;65.27
43683;BME280;29285;52.128;21.060;2023-04-21T03:10:32;100718.35;;;11.04;65.48
43683;BME280;29285;52.128;21.060;2023-04-21T03:15:33;100719.58;;;11.03;65.82
43683;BME280;29285;52.128;21.060;2023-04-21T03:20:34;100720.14;;;11.01;65.80
43683;BME280;29285;52.128;21.060;2023-04-21T03:25:37;100716.17;;;10.98;66.24
43683;BME280;29285;52.128;21.060;2023-04-21T03:30:38;100719.84;;;10.96;66.49
43683;BME280;29285;52.128;21.060;2023-04-21T03:35:40;100719.89;;;10.91;66.61
43683;BME280;29285;52.128;21.060;2023-04-21T03:40:41;100716.77;;;10.92;66.90
43683;BME280;29285;52.128;21.060;2023-04-21T03:45:42;100721.46;;;10.91;67.00
43683;BME280;29285;52.128;21.060;2023-04-21T03:50:43;100721.10;;;10.91;67.32
43683;BME280;29285;52.128;21.060;2023-04-21T03:55:44;100728.07;;;10.89;67.46
43683;BME280;29285;52.128;21.060;2023-04-21T04:00:48;100730.14;;;10.91;67.69
43683;BME280;29285;52.128;21.060;2023-04-21T04:05:49;100737.73;;;10.94;68.00
43683;BME280;29285;52.128;21.060;2023-04-21T04:10:50;100740.46;;;10.98;68.13
43683;BME280;29285;52.128;21.060;2023-04-21T04:15:52;100744.08;;;11.02;68.35
43683;BME280;29285;52.128;21.060;2023-04-21T04:20:53;100746.81;;;11.06;68.54
43683;BME280;29285;52.128;21.060;2023-04-21T04:25:55;100749.38;;;11.09;68.82
43683;BME280;29285;52.128;21.060;2023-04-21T04:30:57;100753.05;;;11.07;68.67
43683;BME280;29285;52.128;21.060;2023-04-21T04:35:58;100752.88;;;11.06;68.71
43683;BME280;29285;52.128;21.060;2023-04-21T04:40:59;100758.73;;;11.11;68.89
43683;BME280;29285;52.128;21.060;2023-04-21T04:46:02;100761.60;;;11.19;69.15
43683;BME280;29285;52.128;21.060;2023-04-21T04:51:04;100763.38;;;11.30;69.43
43683;BME280;29285;52.128;21.060;2023-04-21T04:56:06;100767.81;;;11.36;69.48
43683;BME280;29285;52.128;21.060;2023-04-21T05:01:14;100763.73;;;11.43;69.56
43683;BME280;29285;52.128;21.060;2023-04-21T05:06:15;100765.78;;;11.46;69.75
43683;BME280;29285;52.128;21.060;2023-04-21T05:11:16;100765.85;;;11.55;69.86
43683;BME280;29285;52.128;21.060;2023-04-21T05:16:17;100762.20;;;11.79;70.40
43683;BME280;29285;52.128;21.060;2023-04-21T05:21:25;100762.23;;;11.90;70.71
43683;BME280;29285;52.128;21.060;2023-04-21T05:26:28;100762.80;;;11.99;70.51
43683;BME280;29285;52.128;21.060;2023-04-21T05:31:30;100762.21;;;12.04;70.36
43683;BME280;29285;52.128;21.060;2023-04-21T05:36:31;100760.91;;;12.11;70.16
43683;BME280;29285;52.128;21.060;2023-04-21T05:41:32;100760.38;;;12.22;70.23
43683;BME280;29285;52.128;21.060;2023-04-21T05:46:33;100765.62;;;12.32;70.24
43683;BME280;29285;52.128;21.060;2023-04-21T05:51:34;100765.26;;;12.43;70.32
43683;BME280;29285;52.128;21.060;2023-04-21T05:56:36;100764.10;;;12.50;70.19
43683;BME280;29285;52.128;21.060;2023-04-21T06:01:37;100760.88;;;12.55;69.98
43683;BME280;29285;52.128;21.060;2023-04-21T06:06:39;100759.98;;;12.67;70.10
43683;BME280;29285;52.128;21.060;2023-04-21T06:11:40;100754.30;;;12.83;70.18
43683;BME280;29285;52.128;21.060;2023-04-21T06:16:41;100752.27;;;12.98;70.08
43683;BME280;29285;52.128;21.060;2023-04-21T06:21:42;100753.34;;;13.15;70.08
43683;BME280;29285;52.128;21.060;2023-04-21T06:26:43;100746.48;;;13.26;69.99
43683;BME280;29285;52.128;21.060;2023-04-21T06:31:45;100741.94;;;13.35;69.79
43683;BME280;29285;52.128;21.060;2023-04-21T06:36:46;100749.27;;;13.44;69.57
43683;BME280;29285;52.128;21.060;2023-04-21T06:41:47;100742.38;;;13.58;69.44
43683;BME280;29285;52.128;21.060;2023-04-21T06:46:48;100744.93;;;13.76;69.24
43683;BME280;29285;52.128;21.060;2023-04-21T06:51:49;100739.91;;;13.89;69.09
43683;BME280;29285;52.128;21.060;2023-04-21T06:56:50;100741.36;;;14.02;68.95
43683;BME280;29285;52.128;21.060;2023-04-21T07:01:51;100736.59;;;14.12;68.66
43683;BME280;29285;52.128;21.060;2023-04-21T07:06:52;100738.77;;;14.23;68.48
43683;BME280;29285;52.128;21.060;2023-04-21T07:11:54;100739.30;;;14.36;68.25
43683;BME280;29285;52.128;21.060;2023-04-21T07:16:55;100737.77;;;14.48;67.88
43683;BME280;29285;52.128;21.060;2023-04-21T07:21:57;100735.86;;;14.61;67.56
43683;BME280;29285;52.128;21.060;2023-04-21T07:26:59;100735.57;;;14.73;67.24
43683;BME280;29285;52.128;21.060;2023-04-21T07:32:00;100742.58;;;14.86;66.91
43683;BME280;29285;52.128;21.060;2023-04-21T07:37:02;100738.94;;;14.98;66.53
43683;BME280;29285;52.128;21.060;2023-04-21T07:42:03;100744.54;;;15.10;66.08
43683;BME280;29285;52.128;21.060;2023-04-21T07:47:08;100738.83;;;15.20;65.56
43683;BME280;29285;52.128;21.060;2023-04-21T07:52:09;100729.86;;;15.34;65.14
43683;BME280;29285;52.128;21.060;2023-04-21T07:57:10;100726.92;;;15.45;64.55
43683;BME280;29285;52.128;21.060;2023-04-21T08:02:11;100722.13;;;15.59;64.13
43683;BME280;29285;52.128;21.060;2023-04-21T08:07:13;100720.78;;;15.69;63.47
43683;BME280;29285;52.128;21.060;2023-04-21T08:12:15;100718.92;;;15.78;62.81
43683;BME280;29285;52.128;21.060;2023-04-21T08:17:16;100715.17;;;15.86;62.15
43683;BME280;29285;52.128;21.060;2023-04-21T08:22:17;100712.95;;;15.96;61.50
43683;BME280;29285;52.128;21.060;2023-04-21T08:27:19;100713.84;;;16.07;60.81
43683;BME280;29285;52.128;21.060;2023-04-21T08:32:20;100710.36;;;16.16;60.19
43683;BME280;29285;52.128;21.060;2023-04-21T08:37:26;100710.26;;;16.30;59.58
43683;BME280;29285;52.128;21.060;2023-04-21T08:42:27;100707.41;;;16.42;58.90
43683;BME280;29285;52.128;21.060;2023-04-21T08:47:28;100706.24;;;16.51;58.11
43683;BME280;29285;52.128;21.060;2023-04-21T08:52:30;100702.97;;;16.59;57.41
43683;BME280;29285;52.128;21.060;2023-04-21T08:57:31;100702.13;;;16.68;56.70
43683;BME280;29285;52.128;21.060;2023-04-21T09:02:32;100700.09;;;16.76;55.98
43683;BME280;29285;52.128;21.060;2023-04-21T09:07:36;100694.42;;;16.83;55.30
43683;BME280;29285;52.128;21.060;2023-04-21T09:12:41;100695.61;;;16.93;54.67
43683;BME280;29285;52.128;21.060;2023-04-21T09:17:44;100683.21;;;16.97;53.98
43683;BME280;29285;52.128;21.060;2023-04-21T09:22:49;100682.16;;;17.02;53.30
43683;BME280;29285;52.128;21.060;2023-04-21T09:27:52;100677.63;;;17.06;52.58
43683;BME280;29285;52.128;21.060;2023-04-21T09:32:57;100673.64;;;17.15;52.10
43683;BME280;29285;52.128;21.060;2023-04-21T09:38:00;100668.23;;;17.24;51.57
43683;BME280;29285;52.128;21.060;2023-04-21T09:43:01;100665.64;;;17.31;51.21
43683;BME280;29285;52.128;21.060;2023-04-21T09:48:03;100663.02;;;17.41;50.89
43683;BME280;29285;52.128;21.060;2023-04-21T09:53:08;100660.85;;;17.47;50.40
43683;BME280;29285;52.128;21.060;2023-04-21T09:58:12;100651.30;;;17.53;50.16
43683;BME280;29285;52.128;21.060;2023-04-21T10:03:16;100649.78;;;17.56;49.53
43683;BME280;29285;52.128;21.060;2023-04-21T10:08:19;100649.50;;;17.63;49.14
43683;BME280;29285;52.128;21.060;2023-04-21T10:13:21;100639.11;;;17.69;48.72
43683;BME280;29285;52.128;21.060;2023-04-21T10:18:22;100633.80;;;17.74;48.22
43683;BME280;29285;52.128;21.060;2023-04-21T10:23:44;100631.17;;;17.86;48.07
43683;BME280;29285;52.128;21.060;2023-04-21T10:28:47;100629.60;;;18.04;47.83
43683;BME280;29285;52.128;21.060;2023-04-21T10:39:08;100616.20;;;18.30;47.20
43683;BME280;29285;52.128;21.060;2023-04-21T10:44:12;100612.70;;;18.46;46.80
43683;BME280;29285;52.128;21.060;2023-04-21T10:49:24;100608.02;;;18.67;46.72
43683;BME280;29285;52.128;21.060;2023-04-21T10:54:28;100602.23;;;18.91;46.44
43683;BME280;29285;52.128;21.060;2023-04-21T10:59:31;100599.39;;;19.15;46.16
43683;BME280;29285;52.128;21.060;2023-04-21T11:04:34;100588.86;;;19.40;45.75
43683;BME280;29285;52.128;21.060;2023-04-21T11:09:36;100585.70;;;19.68;45.54
43683;BME280;29285;52.128;21.060;2023-04-21T11:14:40;100585.84;;;19.94;45.22
43683;BME280;29285;52.128;21.060;2023-04-21T11:19:54;100577.10;;;20.20;44.92
43683;BME280;29285;52.128;21.060;2023-04-21T11:24:56;100572.94;;;20.39;44.27
43683;BME280;29285;52.128;21.060;2023-04-21T11:30:02;100553.40;;;20.59;43.80
43683;BME280;29285;52.128;21.060;2023-04-21T11:35:03;100548.50;;;20.84;43.41
43683;BME280;29285;52.128;21.060;2023-04-21T11:40:06;100545.13;;;21.01;42.90
43683;BME280;29285;52.128;21.060;2023-04-21T11:45:15;100539.52;;;21.22;42.50
43683;BME280;29285;52.128;21.060;2023-04-21T11:50:30;100534.55;;;21.35;41.87
43683;BME280;29285;52.128;21.060;2023-04-21T11:55:35;100532.08;;;21.50;41.30
43683;BME280;29285;52.128;21.060;2023-04-21T12:00:37;100530.13;;;21.75;41.15
43683;BME280;29285;52.128;21.060;2023-04-21T12:05:38;100527.98;;;21.84;40.60
43683;BME280;29285;52.128;21.060;2023-04-21T12:10:43;100517.19;;;21.99;40.27
43683;BME280;29285;52.128;21.060;2023-04-21T12:15:44;100510.20;;;21.95;39.49
43683;BME280;29285;52.128;21.060;2023-04-21T12:20:50;100508.79;;;22.13;39.18
43683;BME280;29285;52.128;21.060;2023-04-21T12:25:51;100502.37;;;22.33;39.05
43683;BME280;29285;52.128;21.060;2023-04-21T12:30:52;100496.09;;;22.49;38.71
43683;BME280;29285;52.128;21.060;2023-04-21T12:35:53;100492.17;;;22.50;38.10
43683;BME280;29285;52.128;21.060;2023-04-21T12:40:55;100491.64;;;22.59;37.73
43683;BME280;29285;52.128;21.060;2023-04-21T12:45:56;100482.46;;;22.67;37.19
43683;BME280;29285;52.128;21.060;2023-04-21T12:50:58;100479.19;;;22.65;36.69
43683;BME280;29285;52.128;21.060;2023-04-21T12:55:59;100480.36;;;22.74;36.14
43683;BME280;29285;52.128;21.060;2023-04-21T13:01:00;100479.83;;;22.99;35.99
43683;BME280;29285;52.128;21.060;2023-04-21T13:06:01;100469.23;;;23.28;35.77
43683;BME280;29285;52.128;21.060;2023-04-21T13:11:02;100462.02;;;23.39;35.34
43683;BME280;29285;52.128;21.060;2023-04-21T13:16:04;100463.54;;;23.48;34.96
43683;BME280;29285;52.128;21.060;2023-04-21T13:21:05;100461.19;;;23.71;34.75
43683;BME280;29285;52.128;21.060;2023-04-21T13:26:07;100445.63;;;23.81;34.25
43683;BME280;29285;52.128;21.060;2023-04-21T13:31:08;100437.28;;;24.02;34.01
43683;BME280;29285;52.128;21.060;2023-04-21T13:36:10;100439.36;;;24.36;33.72
43683;BME280;29285;52.128;21.060;2023-04-21T13:41:12;100425.34;;;24.65;33.63
43683;BME280;29285;52.128;21.060;2023-04-21T13:46:14;100428.02;;;24.85;33.36
43683;BME280;29285;52.128;21.060;2023-04-21T13:51:15;100417.17;;;24.92;33.96
43683;BME280;29285;52.128;21.060;2023-04-21T13:56:18;100416.41;;;24.76;34.62
43683;BME280;29285;52.128;21.060;2023-04-21T14:01:20;100408.61;;;24.81;34.89
43683;BME280;29285;52.128;21.060;2023-04-21T14:06:21;100404.34;;;24.83;35.30
43683;BME280;29285;52.128;21.060;2023-04-21T14:11:22;100401.65;;;24.86;35.43
43683;BME280;29285;52.128;21.060;2023-04-21T14:16:23;100392.84;;;25.02;35.80
43683;BME280;29285;52.128;21.060;2023-04-21T14:21:24;100386.88;;;25.11;36.23
43683;BME280;29285;52.128;21.060;2023-04-21T14:26:25;100382.55;;;24.97;36.20
43683;BME280;29285;52.128;21.060;2023-04-21T14:31:27;100379.58;;;24.92;36.40
43683;BME280;29285;52.128;21.060;2023-04-21T14:36:29;100378.67;;;25.04;36.64
43683;BME280;29285;52.128;21.060;2023-04-21T14:41:30;100366.81;;;25.08;36.70
43683;BME280;29285;52.128;21.060;2023-04-21T14:46:32;100370.95;;;25.15;36.63
43683;BME280;29285;52.128;21.060;2023-04-21T14:51:33;100367.82;;;25.16;36.71
43683;BME280;29285;52.128;21.060;2023-04-21T14:56:34;100362.21;;;25.31;36.55
43683;BME280;29285;52.128;21.060;2023-04-21T15:01:35;100358.56;;;25.39;35.91
43683;BME280;29285;52.128;21.060;2023-04-21T15:06:37;100354.95;;;25.45;35.41
43683;BME280;29285;52.128;21.060;2023-04-21T15:11:38;100347.72;;;25.70;35.20
43683;BME280;29285;52.128;21.060;2023-04-21T15:16:39;100346.54;;;25.91;34.97
43683;BME280;29285;52.128;21.060;2023-04-21T15:21:40;100340.61;;;25.92;34.86
43683;BME280;29285;52.128;21.060;2023-04-21T15:26:41;100336.40;;;25.96;34.59
43683;BME280;29285;52.128;21.060;2023-04-21T15:31:43;100334.27;;;26.07;34.32
43683;BME280;29285;52.128;21.060;2023-04-21T15:36:44;100335.27;;;26.39;34.29
43683;BME280;29285;52.128;21.060;2023-04-21T15:41:46;100332.70;;;26.80;34.33
43683;BME280;29285;52.128;21.060;2023-04-21T15:46:47;100332.19;;;26.74;33.83
43683;BME280;29285;52.128;21.060;2023-04-21T15:51:48;100327.05;;;26.52;33.60
43683;BME280;29285;52.128;21.060;2023-04-21T15:56:49;100325.73;;;26.20;33.38
43683;BME280;29285;52.128;21.060;2023-04-21T16:01:51;100321.35;;;25.59;32.62
43683;BME280;29285;52.128;21.060;2023-04-21T16:06:52;100322.73;;;24.97;32.20
43683;BME280;29285;52.128;21.060;2023-04-21T16:11:53;100320.23;;;24.48;31.98
43683;BME280;29285;52.128;21.060;2023-04-21T16:16:54;100317.23;;;24.04;31.91
43683;BME280;29285;52.128;21.060;2023-04-21T16:21:56;100317.34;;;23.65;32.04
43683;BME280;29285;52.128;21.060;2023-04-21T16:26:58;100318.17;;;23.30;31.89
43683;BME280;29285;52.128;21.060;2023-04-21T16:31:59;100315.06;;;23.00;32.05
43683;BME280;29285;52.128;21.060;2023-04-21T16:37:00;100317.75;;;22.71;31.86
43683;BME280;29285;52.128;21.060;2023-04-21T16:42:01;100315.05;;;22.45;31.87
43683;BME280;29285;52.128;21.060;2023-04-21T16:47:02;100314.59;;;22.25;32.05
43683;BME280;29285;52.128;21.060;2023-04-21T16:52:04;100315.23;;;22.12;32.37
43683;BME280;29285;52.128;21.060;2023-04-21T16:57:05;100313.89;;;21.94;32.41
43683;BME280;29285;52.128;21.060;2023-04-21T17:02:06;100315.91;;;21.79;32.53
43683;BME280;29285;52.128;21.060;2023-04-21T17:07:07;100312.82;;;21.63;32.69
43683;BME280;29285;52.128;21.060;2023-04-21T17:12:08;100318.14;;;21.48;32.86
43683;BME280;29285;52.128;21.060;2023-04-21T17:17:09;100317.51;;;21.24;32.75
43683;BME280;29285;52.128;21.060;2023-04-21T17:22:10;100320.01;;;21.03;32.78
43683;BME280;29285;52.128;21.060;2023-04-21T17:27:12;100322.81;;;20.88;32.92
43683;BME280;29285;52.128;21.060;2023-04-21T17:32:13;100324.39;;;20.73;33.10
43683;BME280;29285;52.128;21.060;2023-04-21T17:37:14;100327.76;;;20.48;33.11
43683;BME280;29285;52.128;21.060;2023-04-21T17:42:15;100327.23;;;20.29;33.28
43683;BME280;29285;52.128;21.060;2023-04-21T17:47:16;100330.21;;;20.14;33.48
43683;BME280;29285;52.128;21.060;2023-04-21T17:52:18;100332.41;;;19.96;33.67
43683;BME280;29285;52.128;21.060;2023-04-21T17:57:19;100332.56;;;19.89;34.08
43683;BME280;29285;52.128;21.060;2023-04-21T18:02:20;100340.94;;;19.78;34.27
43683;BME280;29285;52.128;21.060;2023-04-21T18:07:21;100339.19;;;19.51;34.27
43683;BME280;29285;52.128;21.060;2023-04-21T18:12:22;100349.52;;;19.22;34.06
43683;BME280;29285;52.128;21.060;2023-04-21T18:17:24;100348.97;;;18.97;34.05
43683;BME280;29285;52.128;21.060;2023-04-21T18:22:25;100346.95;;;18.78;34.14
43683;BME280;29285;52.128;21.060;2023-04-21T18:27:27;100348.33;;;18.61;34.05
43683;BME280;29285;52.128;21.060;2023-04-21T18:32:28;100348.43;;;18.45;34.15
43683;BME280;29285;52.128;21.060;2023-04-21T18:37:30;100346.85;;;18.30;34.21
43683;BME280;29285;52.128;21.060;2023-04-21T18:42:32;100348.64;;;18.14;34.38
43683;BME280;29285;52.128;21.060;2023-04-21T18:47:33;100344.80;;;17.94;34.60
43683;BME280;29285;52.128;21.060;2023-04-21T18:52:34;100345.27;;;17.69;34.90
43683;BME280;29285;52.128;21.060;2023-04-21T18:57:35;100341.48;;;17.43;35.18
43683;BME280;29285;52.128;21.060;2023-04-21T19:02:36;100338.95;;;17.21;35.47
43683;BME280;29285;52.128;21.060;2023-04-21T19:07:39;100338.24;;;17.00;35.83
43683;BME280;29285;52.128;21.060;2023-04-21T19:12:41;100334.42;;;16.87;36.29
43683;BME280;29285;52.128;21.060;2023-04-21T19:17:43;100332.89;;;16.73;36.76
43683;BME280;29285;52.128;21.060;2023-04-21T19:22:44;100335.98;;;16.57;37.00
43683;BME280;29285;52.128;21.060;2023-04-21T19:27:46;100335.64;;;16.44;37.34
43683;BME280;29285;52.128;21.060;2023-04-21T19:32:47;100331.89;;;16.33;37.68
43683;BME280;29285;52.128;21.060;2023-04-21T19:37:49;100328.89;;;16.24;38.18
43683;BME280;29285;52.128;21.060;2023-04-21T19:42:50;100331.61;;;16.13;38.41
43683;BME280;29285;52.128;21.060;2023-04-21T19:47:51;100330.15;;;15.96;38.66
43683;BME280;29285;52.128;21.060;2023-04-21T19:52:53;100333.84;;;15.86;38.96
43683;BME280;29285;52.128;21.060;2023-04-21T19:57:54;100335.62;;;15.80;39.32
43683;BME280;29285;52.128;21.060;2023-04-21T20:02:55;100337.14;;;15.77;39.63
43683;BME280;29285;52.128;21.060;2023-04-21T20:07:56;100335.84;;;15.69;40.01
43683;BME280;29285;52.128;21.060;2023-04-21T20:12:58;100341.05;;;15.56;40.13
43683;BME280;29285;52.128;21.060;2023-04-21T20:17:59;100334.27;;;15.45;40.48
43683;BME280;29285;52.128;21.060;2023-04-21T20:23:01;100337.16;;;15.33;40.74
43683;BME280;29285;52.128;21.060;2023-04-21T20:28:02;100341.58;;;15.22;41.06
43683;BME280;29285;52.128;21.060;2023-04-21T20:33:03;100342.13;;;15.11;41.39
43683;BME280;29285;52.128;21.060;2023-04-21T20:38:05;100350.25;;;15.23;42.12
43683;BME280;29285;52.128;21.060;2023-04-21T20:43:10;100347.14;;;15.37;42.85
43683;BME280;29285;52.128;21.060;2023-04-21T20:48:12;100346.51;;;15.41;43.36
43683;BME280;29285;52.128;21.060;2023-04-21T20:53:13;100347.55;;;15.36;43.55
43683;BME280;29285;52.128;21.060;2023-04-21T20:58:14;100347.89;;;15.31;43.69
43683;BME280;29285;52.128;21.060;2023-04-21T21:03:15;100346.15;;;15.21;43.85
43683;BME280;29285;52.128;21.060;2023-04-21T21:08:16;100346.62;;;15.12;44.01
43683;BME280;29285;52.128;21.060;2023-04-21T21:13:18;100347.73;;;15.05;44.21
43683;BME280;29285;52.128;21.060;2023-04-21T21:18:19;100347.55;;;14.90;44.32
43683;BME280;29285;52.128;21.060;2023-04-21T21:23:20;100346.02;;;14.78;44.45
43683;BME280;29285;52.128;21.060;2023-04-21T21:28:21;100345.66;;;14.67;44.64
43683;BME280;29285;52.128;21.060;2023-04-21T21:33:22;100343.55;;;14.62;45.08
43683;BME280;29285;52.128;21.060;2023-04-21T21:38:23;100344.09;;;14.56;45.28
43683;BME280;29285;52.128;21.060;2023-04-21T21:43:24;100337.20;;;14.48;45.56
43683;BME280;29285;52.128;21.060;2023-04-21T21:48:25;100336.77;;;14.39;45.89
43683;BME280;29285;52.128;21.060;2023-04-21T21:53:26;100337.23;;;14.30;46.26
43683;BME280;29285;52.128;21.060;2023-04-21T21:58:27;100343.71;;;14.24;46.57
43683;BME280;29285;52.128;21.060;2023-04-21T22:03:29;100345.42;;;14.19;46.97
43683;BME280;29285;52.128;21.060;2023-04-21T22:08:30;100341.98;;;14.17;47.39
43683;BME280;29285;52.128;21.060;2023-04-21T22:13:31;100345.50;;;14.16;47.84
43683;BME280;29285;52.128;21.060;2023-04-21T22:18:33;100344.05;;;14.12;48.17
43683;BME280;29285;52.128;21.060;2023-04-21T22:23:34;100343.20;;;14.06;48.46
43683;BME280;29285;52.128;21.060;2023-04-21T22:28:36;100339.79;;;14.04;48.62
43683;BME280;29285;52.128;21.060;2023-04-21T22:33:37;100339.55;;;14.00;48.92
43683;BME280;29285;52.128;21.060;2023-04-21T22:38:38;100336.52;;;13.96;49.22
43683;BME280;29285;52.128;21.060;2023-04-21T22:43:40;100335.42;;;13.92;49.45
43683;BME280;29285;52.128;21.060;2023-04-21T22:48:41;100335.51;;;13.83;49.72
43683;BME280;29285;52.128;21.060;2023-04-21T22:53:46;100333.34;;;13.73;49.94
43683;BME280;29285;52.128;21.060;2023-04-21T22:58:47;100329.18;;;13.66;50.03
43683;BME280;29285;52.128;21.060;2023-04-21T23:03:48;100331.29;;;13.59;50.35
43683;BME280;29285;52.128;21.060;2023-04-21T23:08:49;100326.14;;;13.51;50.64
43683;BME280;29285;52.128;21.060;2023-04-21T23:13:50;100321.55;;;13.46;50.86
43683;BME280;29285;52.128;21.060;2023-04-21T23:18:51;100322.25;;;13.39;51.16
43683;BME280;29285;52.128;21.060;2023-04-21T23:23:52;100321.84;;;13.29;51.36
43683;BME280;29285;52.128;21.060;2023-04-21T23:28:53;100328.55;;;13.19;51.51
43683;BME280;29285;52.128;21.060;2023-04-21T23:33:55;100327.16;;;13.12;51.83
43683;BME280;29285;52.128;21.060;2023-04-21T23:38:56;100333.59;;;13.13;52.28
43683;BME280;29285;52.128;21.060;2023-04-21T23:43:57;100334.53;;;13.17;52.53
43683;BME280;29285;52.128;21.060;2023-04-21T23:48:58;100332.19;;;13.20;52.88
43683;BME280;29285;52.128;21.060;2023-04-21T23:53:59;100330.31;;;13.19;53.04
43683;BME280;29285;52.128;21.060;2023-04-21T23:59:01;100326.99;;;13.18;53.25
